createdAt,value
2018-04-22T00:01:16.603Z,12.50
2018-04-22T00:03:49.165Z,12.50
2018-04-22T00:06:21.394Z,12.50
2018-04-22T00:08:52.604Z,12.40
2018-04-22T00:11:25.135Z,12.50
2018-04-22T00:13:56.368Z,12.50
2018-04-22T00:16:39.991Z,12.60
2018-04-22T00:19:08.152Z,12.60
2018-04-22T00:21:36.051Z,12.50
2018-04-22T00:24:04.029Z,12.50
2018-04-22T00:26:31.927Z,12.50
2018-04-22T00:28:59.886Z,12.60
2018-04-22T00:31:27.818Z,12.50
2018-04-22T00:33:59.263Z,12.50
2018-04-22T00:36:30.365Z,12.50
2018-04-22T00:39:02.779Z,12.50
2018-04-22T00:41:31.609Z,12.30
2018-04-22T00:43:59.547Z,12.30
2018-04-22T00:46:27.443Z,12.40
2018-04-22T00:48:55.398Z,12.40
2018-04-22T00:51:23.297Z,12.40
2018-04-22T00:54:03.071Z,12.40
2018-04-22T00:56:31.735Z,12.30
2018-04-22T00:58:59.670Z,12.30
2018-04-22T01:01:27.572Z,12.30
2018-04-22T01:03:55.515Z,12.20
2018-04-22T01:06:23.421Z,12.20
2018-04-22T01:08:51.371Z,12.10
2018-04-22T01:11:19.272Z,12.00
2018-04-22T01:13:47.995Z,11.90
2018-04-22T01:16:15.936Z,11.90
2018-04-22T01:18:44.728Z,11.80
2018-04-22T01:21:12.629Z,11.80
2018-04-22T01:23:40.586Z,11.70
2018-04-22T01:26:08.493Z,11.70
2018-04-22T01:28:36.446Z,11.80
2018-04-22T01:31:04.391Z,11.80
2018-04-22T01:33:32.328Z,11.70
2018-04-22T01:36:00.989Z,11.70
2018-04-22T01:38:28.948Z,11.60
2018-04-22T01:40:56.846Z,11.60
2018-04-22T01:43:24.768Z,11.50
2018-04-22T01:45:52.766Z,11.40
2018-04-22T01:48:20.675Z,11.30
2018-04-22T01:50:49.515Z,11.30
2018-04-22T01:53:17.423Z,11.20
2018-04-22T01:55:46.147Z,11.30
2018-04-22T01:58:14.150Z,11.30
2018-04-22T02:00:42.103Z,11.30
2018-04-22T02:03:10.005Z,11.30
2018-04-22T02:05:37.975Z,11.20
2018-04-22T02:08:05.873Z,11.10
2018-04-22T02:10:34.605Z,11.10
2018-04-22T02:13:02.510Z,11.10
2018-04-22T02:15:30.453Z,11.10
2018-04-22T02:17:58.350Z,11.00
2018-04-22T02:20:26.307Z,10.90
2018-04-22T02:22:54.209Z,10.80
2018-04-22T02:25:22.932Z,10.90
2018-04-22T02:27:55.257Z,10.90
2018-04-22T02:30:23.964Z,10.80
2018-04-22T02:32:51.860Z,10.80
2018-04-22T02:35:19.806Z,10.70
2018-04-22T02:37:47.702Z,10.80
2018-04-22T02:40:15.664Z,10.70
2018-04-22T02:42:43.567Z,10.70
2018-04-22T02:45:11.571Z,10.70
2018-04-22T02:47:40.237Z,10.70
2018-04-22T02:50:08.193Z,10.70
2018-04-22T02:52:36.107Z,10.60
2018-04-22T02:55:04.127Z,10.70
2018-04-22T02:57:32.013Z,10.70
2018-04-22T02:59:59.961Z,10.70
2018-04-22T03:02:27.871Z,10.60
2018-04-22T03:04:55.817Z,10.50
2018-04-22T03:07:23.719Z,10.50
2018-04-22T03:09:52.437Z,10.50
2018-04-22T03:12:20.333Z,10.40
2018-04-22T03:14:48.287Z,10.50
2018-04-22T03:17:16.180Z,10.50
2018-04-22T03:19:44.137Z,10.40
2018-04-22T03:22:12.097Z,10.30
2018-04-22T03:24:40.067Z,10.30
2018-04-22T03:27:08.087Z,10.30
2018-04-22T03:29:36.818Z,10.20
2018-04-22T03:32:05.099Z,10.20
2018-04-22T03:34:33.062Z,10.30
2018-04-22T03:37:02.078Z,10.40
2018-04-22T03:39:30.038Z,10.40
2018-04-22T03:41:57.951Z,10.40
2018-04-22T03:44:26.684Z,10.30
2018-04-22T03:46:54.582Z,10.30
2018-04-22T03:49:22.525Z,10.30
2018-04-22T03:51:50.534Z,10.20
2018-04-22T03:54:18.602Z,10.10
2018-04-22T03:56:46.553Z,10.20
2018-04-22T03:59:14.504Z,10.20
2018-04-22T04:01:42.410Z,10.10
2018-04-22T04:04:10.366Z,10.00
2018-04-22T04:06:38.282Z,10.10
2018-04-22T04:09:06.991Z,10.00
2018-04-22T04:11:34.941Z,10.00
2018-04-22T04:14:03.607Z,10.00
2018-04-22T04:16:31.595Z,10.00
2018-04-22T04:19:11.998Z,10.00
2018-04-22T04:21:51.511Z,10.00
2018-04-22T04:27:41.848Z,9.90
2018-04-22T04:30:09.813Z,9.90
2018-04-22T04:32:37.699Z,9.90
2018-04-22T04:35:05.682Z,10.00
2018-04-22T04:37:33.595Z,10.00
2018-04-22T04:40:02.334Z,10.10
2018-04-22T04:42:30.236Z,10.10
2018-04-22T04:44:58.958Z,10.10
2018-04-22T04:47:26.873Z,10.10
2018-04-22T04:49:54.839Z,10.20
2018-04-22T04:52:22.732Z,10.30
2018-04-22T04:54:51.518Z,10.50
2018-04-22T04:57:19.418Z,10.50
2018-04-22T04:59:47.495Z,10.50
2018-04-22T05:02:15.417Z,10.60
2018-04-22T05:04:43.322Z,10.70
2018-04-22T05:07:11.286Z,10.70
2018-04-22T05:09:39.968Z,10.90
2018-04-22T05:12:08.695Z,11.00
2018-04-22T05:14:36.608Z,11.00
2018-04-22T05:17:04.591Z,11.10
2018-04-22T05:19:33.281Z,11.20
2018-04-22T05:22:01.259Z,11.20
2018-04-22T05:24:29.934Z,11.30
2018-04-22T05:26:58.667Z,11.60
2018-04-22T05:29:26.579Z,11.50
2018-04-22T05:31:54.553Z,11.70
2018-04-22T05:34:22.533Z,11.90
2018-04-22T05:36:55.057Z,12.30
2018-04-22T05:39:27.395Z,12.30
2018-04-22T05:41:59.841Z,13.50
2018-04-22T05:44:31.655Z,13.50
2018-04-22T05:47:04.163Z,14.70
2018-04-22T05:49:36.260Z,15.10
2018-04-22T05:52:08.352Z,15.70
2018-04-22T05:54:39.621Z,15.70
2018-04-22T05:57:11.141Z,16.40
2018-04-22T05:59:42.351Z,16.80
2018-04-22T06:02:10.516Z,17.80
2018-04-22T06:04:39.203Z,18.10
2018-04-22T06:07:07.149Z,18.00
2018-04-22T06:09:35.079Z,18.50
2018-04-22T06:12:03.830Z,19.10
2018-04-22T06:14:31.720Z,19.10
2018-04-22T06:16:59.680Z,20.10
2018-04-22T06:19:27.595Z,20.80
2018-04-22T06:21:55.545Z,21.00
2018-04-22T06:24:24.202Z,21.40
2018-04-22T06:26:52.155Z,21.30
2018-04-22T06:29:20.062Z,21.50
2018-04-22T06:31:48.006Z,22.00
2018-04-22T06:34:15.917Z,22.50
2018-04-22T06:36:44.682Z,23.80
2018-04-22T06:39:12.579Z,23.70
2018-04-22T06:41:41.313Z,24.80
2018-04-22T06:44:09.215Z,24.70
2018-04-22T06:46:37.176Z,24.30
2018-04-22T06:49:05.078Z,24.60
2018-04-22T06:51:33.837Z,25.30
2018-04-22T06:54:01.728Z,25.30
2018-04-22T06:56:30.440Z,26.70
2018-04-22T06:58:58.335Z,26.60
2018-04-22T07:01:26.284Z,27.70
2018-04-22T07:03:54.185Z,28.20
2018-04-22T07:06:22.125Z,27.80
2018-04-22T07:08:50.013Z,26.60
2018-04-22T07:11:17.975Z,26.90
2018-04-22T07:13:45.899Z,27.50
2018-04-22T07:16:14.977Z,29.10
2018-04-22T07:18:43.185Z,29.00
2018-04-22T07:21:11.147Z,29.50
2018-04-22T07:23:39.099Z,28.50
2018-04-22T07:26:07.824Z,28.90
2018-04-22T07:28:35.714Z,28.90
2018-04-22T07:31:03.673Z,29.50
2018-04-22T07:33:31.599Z,29.50
2018-04-22T07:36:00.305Z,29.60
2018-04-22T07:38:28.193Z,29.50
2018-04-22T07:40:56.532Z,30.60
2018-04-22T07:43:25.202Z,30.00
2018-04-22T07:45:53.158Z,30.10
2018-04-22T07:48:21.064Z,30.50
2018-04-22T07:50:49.784Z,29.30
2018-04-22T07:53:17.689Z,29.20
2018-04-22T07:55:45.657Z,29.60
2018-04-22T07:58:13.573Z,30.70
2018-04-22T08:00:41.535Z,29.80
2018-04-22T08:03:10.215Z,30.60
2018-04-22T08:05:38.955Z,31.20
2018-04-22T08:08:07.456Z,31.20
2018-04-22T08:10:35.484Z,30.50
2018-04-22T08:13:11.024Z,30.10
2018-04-22T08:15:39.046Z,29.20
2018-04-22T08:18:06.972Z,29.30
2018-04-22T08:20:34.881Z,28.20
2018-04-22T08:23:02.839Z,27.20
2018-04-22T08:25:31.076Z,27.60
2018-04-22T08:27:59.466Z,27.90
2018-04-22T08:30:27.365Z,27.40
2018-04-22T08:32:55.321Z,26.90
2018-04-22T08:35:23.212Z,27.80
2018-04-22T08:37:51.175Z,28.30
2018-04-22T08:40:19.100Z,28.90
2018-04-22T08:42:47.825Z,28.90
2018-04-22T08:45:15.713Z,28.90
2018-04-22T08:47:44.629Z,29.20
2018-04-22T08:50:13.291Z,32.40
2018-04-22T08:52:41.251Z,32.30
2018-04-22T08:55:09.140Z,33.00
2018-04-22T08:57:37.089Z,33.20
2018-04-22T09:00:05.399Z,33.60
2018-04-22T09:02:33.364Z,34.40
2018-04-22T09:05:01.700Z,35.10
2018-04-22T09:07:29.753Z,35.50
2018-04-22T09:09:57.653Z,36.20
2018-04-22T09:12:26.000Z,36.10
2018-04-22T09:14:56.707Z,35.00
2018-04-22T09:17:25.644Z,35.00
2018-04-22T09:19:53.575Z,35.60
2018-04-22T09:22:22.307Z,34.60
2018-04-22T09:24:50.210Z,34.50
2018-04-22T09:27:18.164Z,33.50
2018-04-22T09:29:46.072Z,33.50
2018-04-22T09:32:14.785Z,33.60
2018-04-22T09:34:43.408Z,33.60
2018-04-22T09:37:11.370Z,32.20
2018-04-22T09:39:39.313Z,32.60
2018-04-22T09:42:07.263Z,32.10
2018-04-22T09:44:37.193Z,31.00
2018-04-22T09:47:06.117Z,30.30
2018-04-22T09:49:34.826Z,31.70
2018-04-22T09:52:02.961Z,31.60
2018-04-22T09:54:31.204Z,31.80
2018-04-22T09:56:59.914Z,32.70
2018-04-22T09:59:27.810Z,32.70
2018-04-22T10:02:07.421Z,33.70
2018-04-22T10:04:39.339Z,32.30
2018-04-22T10:07:07.306Z,32.30
2018-04-22T10:09:35.201Z,32.40
2018-04-22T10:12:03.917Z,33.10
2018-04-22T10:14:31.818Z,33.10
2018-04-22T10:17:19.714Z,31.80
2018-04-22T10:19:47.646Z,33.00
2018-04-22T10:22:15.594Z,34.30
2018-04-22T10:24:43.482Z,34.30
2018-04-22T10:27:11.439Z,34.70
2018-04-22T10:29:39.357Z,35.80
2018-04-22T10:32:07.358Z,35.10
2018-04-22T10:34:35.331Z,35.50
2018-04-22T10:37:03.339Z,35.80
2018-04-22T10:39:31.232Z,36.50
2018-04-22T10:42:00.059Z,36.00
2018-04-22T10:44:28.040Z,35.90
2018-04-22T10:46:56.222Z,36.00
2018-04-22T10:49:24.129Z,37.10
2018-04-22T10:51:52.865Z,36.50
2018-04-22T10:54:22.928Z,36.30
2018-04-22T10:56:53.080Z,36.30
2018-04-22T10:59:21.148Z,36.60
2018-04-22T11:01:49.099Z,36.50
2018-04-22T11:04:17.766Z,35.70
2018-04-22T11:06:45.715Z,35.60
2018-04-22T11:09:13.613Z,36.10
2018-04-22T11:11:41.580Z,35.20
2018-04-22T11:14:09.704Z,36.20
2018-04-22T11:16:37.668Z,36.30
2018-04-22T11:19:05.561Z,36.00
2018-04-22T11:21:35.290Z,35.60
2018-04-22T11:24:04.818Z,34.60
2018-04-22T11:26:33.583Z,35.40
2018-04-22T11:29:04.483Z,35.40
2018-04-22T11:31:35.970Z,36.50
2018-04-22T11:34:07.122Z,34.90
2018-04-22T11:36:35.271Z,35.30
2018-04-22T11:39:03.265Z,35.20
2018-04-22T11:41:31.224Z,34.50
2018-04-22T11:43:59.119Z,34.70
2018-04-22T11:46:27.060Z,34.10
2018-04-22T11:48:54.965Z,33.70
2018-04-22T11:51:22.923Z,34.70
2018-04-22T11:53:50.821Z,34.20
2018-04-22T11:56:19.487Z,33.70
2018-04-22T11:58:47.438Z,33.70
2018-04-22T12:01:15.320Z,32.90
2018-04-22T12:03:44.025Z,33.40
2018-04-22T12:06:12.701Z,34.00
2018-04-22T12:08:41.430Z,32.70
2018-04-22T12:11:09.357Z,32.70
2018-04-22T12:13:37.326Z,33.00
2018-04-22T12:16:05.230Z,33.30
2018-04-22T12:18:33.193Z,33.90
2018-04-22T12:21:01.851Z,34.50
2018-04-22T12:23:29.861Z,34.50
2018-04-22T12:25:57.753Z,34.50
2018-04-22T12:28:25.726Z,33.50
2018-04-22T12:30:53.620Z,33.40
2018-04-22T12:33:21.637Z,33.60
2018-04-22T12:35:49.615Z,33.80
2018-04-22T12:38:17.563Z,32.90
2018-04-22T12:40:46.218Z,32.70
2018-04-22T12:43:14.174Z,32.70
2018-04-22T12:45:42.102Z,32.70
2018-04-22T12:48:10.063Z,31.50
2018-04-22T12:50:38.710Z,30.40
2018-04-22T12:53:06.678Z,30.40
2018-04-22T12:55:34.585Z,30.30
2018-04-22T12:58:03.300Z,30.70
2018-04-22T13:00:31.188Z,30.60
2018-04-22T13:02:59.130Z,30.90
2018-04-22T13:05:27.019Z,29.90
2018-04-22T13:07:54.963Z,29.80
2018-04-22T13:10:22.866Z,29.80
2018-04-22T13:12:50.818Z,29.70
2018-04-22T13:15:18.710Z,30.20
2018-04-22T13:17:46.663Z,29.80
2018-04-22T13:20:14.587Z,30.40
2018-04-22T13:22:43.309Z,30.50
2018-04-22T13:25:11.982Z,30.50
2018-04-22T13:27:42.020Z,30.50
2018-04-22T13:30:09.919Z,30.60
2018-04-22T13:32:37.877Z,30.40
2018-04-22T13:35:05.766Z,30.50
2018-04-22T13:37:33.718Z,30.20
2018-04-22T13:40:01.608Z,29.30
2018-04-22T13:42:29.558Z,29.60
2018-04-22T13:44:57.458Z,29.20
2018-04-22T13:47:25.404Z,29.50
2018-04-22T13:49:53.305Z,29.80
2018-04-22T13:52:22.013Z,29.80
2018-04-22T13:54:49.893Z,29.70
2018-04-22T13:57:17.836Z,29.80
2018-04-22T13:59:46.486Z,29.60
2018-04-22T14:02:15.314Z,29.60
2018-04-22T14:04:56.244Z,29.50
2018-04-22T14:07:24.967Z,29.50
2018-04-22T14:09:54.436Z,29.50
2018-04-22T14:12:23.031Z,29.50
2018-04-22T14:14:51.771Z,29.50
2018-04-22T14:17:19.722Z,29.40
2018-04-22T14:19:48.447Z,29.20
2018-04-22T14:22:16.408Z,29.20
2018-04-22T14:24:44.348Z,29.60
2018-04-22T14:27:13.904Z,29.50
2018-04-22T14:29:41.845Z,29.50
2018-04-22T14:32:09.802Z,29.80
2018-04-22T14:34:41.789Z,29.60
2018-04-22T14:37:14.981Z,29.60
2018-04-22T14:39:49.464Z,29.50
2018-04-22T14:42:31.514Z,29.00
2018-04-22T14:45:11.193Z,29.00
2018-04-22T14:47:51.062Z,29.00
2018-04-22T14:50:23.338Z,28.40
2018-04-22T14:52:52.054Z,28.00
2018-04-22T14:55:20.196Z,28.00
2018-04-22T14:57:53.841Z,28.30
2018-04-22T15:00:21.743Z,28.30
2018-04-22T15:02:49.689Z,28.20
2018-04-22T15:05:17.634Z,28.10
2018-04-22T15:07:45.640Z,28.00
2018-04-22T15:10:13.533Z,28.00
2018-04-22T15:12:41.478Z,27.90
2018-04-22T15:15:09.373Z,27.70
2018-04-22T15:17:37.361Z,27.60
2018-04-22T15:20:06.047Z,27.40
2018-04-22T15:22:34.763Z,27.40
2018-04-22T15:25:02.703Z,27.40
2018-04-22T15:27:31.419Z,27.50
2018-04-22T15:29:59.297Z,27.50
2018-04-22T15:32:27.235Z,27.50
2018-04-22T15:34:55.944Z,27.60
2018-04-22T15:37:23.903Z,27.60
2018-04-22T15:39:51.865Z,27.60
2018-04-22T15:42:20.533Z,27.60
2018-04-22T15:44:48.482Z,27.60
2018-04-22T15:47:16.387Z,27.70
2018-04-22T15:49:45.110Z,27.40
2018-04-22T15:52:13.776Z,27.40
2018-04-22T15:54:41.725Z,27.30
2018-04-22T15:57:10.406Z,27.00
2018-04-22T15:59:38.359Z,26.90
2018-04-22T16:02:06.268Z,26.80
2018-04-22T16:04:34.252Z,26.60
2018-04-22T16:07:02.166Z,26.50
2018-04-22T16:09:30.205Z,26.40
2018-04-22T16:11:58.360Z,26.30
2018-04-22T16:14:26.486Z,26.30
2018-04-22T16:16:54.361Z,26.20
2018-04-22T16:19:22.316Z,26.20
2018-04-22T16:21:50.221Z,26.10
2018-04-22T16:24:18.993Z,26.10
2018-04-22T16:26:46.904Z,26.10
2018-04-22T16:29:14.849Z,26.10
2018-04-22T16:31:43.517Z,26.10
2018-04-22T16:34:12.249Z,26.00
2018-04-22T16:36:40.150Z,26.00
2018-04-22T16:39:08.106Z,26.00
2018-04-22T16:41:36.004Z,26.00
2018-04-22T16:44:03.983Z,26.00
2018-04-22T16:46:31.883Z,25.90
2018-04-22T16:49:02.847Z,25.60
2018-04-22T16:51:34.992Z,25.60
2018-04-22T16:54:05.740Z,25.40
2018-04-22T16:56:44.169Z,25.40
2018-04-22T16:59:14.942Z,25.40
2018-04-22T17:01:54.885Z,25.30
2018-04-22T17:04:22.824Z,25.30
2018-04-22T17:06:50.742Z,25.30
2018-04-22T17:09:18.694Z,25.30
2018-04-22T17:11:46.623Z,25.20
2018-04-22T17:14:14.628Z,25.20
2018-04-22T17:16:42.560Z,25.10
2018-04-22T17:19:10.551Z,25.00
2018-04-22T17:21:39.684Z,25.00
2018-04-22T17:24:07.687Z,24.90
2018-04-22T17:26:35.960Z,24.90
2018-04-22T17:29:04.712Z,24.80
2018-04-22T17:31:32.689Z,24.80
2018-04-22T17:34:00.681Z,24.80
2018-04-22T17:36:29.408Z,24.60
2018-04-22T17:38:57.357Z,24.50
2018-04-22T17:41:25.941Z,24.50
2018-04-22T17:43:53.910Z,24.40
2018-04-22T17:46:22.562Z,24.30
2018-04-22T17:48:50.533Z,24.30
2018-04-22T17:51:18.643Z,24.30
2018-04-22T17:53:46.758Z,24.20
2018-04-22T17:56:20.734Z,24.10
2018-04-22T17:58:51.948Z,24.00
2018-04-22T18:01:19.960Z,23.90
2018-04-22T18:03:49.474Z,23.80
2018-04-22T18:06:32.914Z,23.60
2018-04-22T18:09:03.022Z,23.50
2018-04-22T18:11:32.478Z,23.40
2018-04-22T18:14:00.441Z,23.30
2018-04-22T18:16:28.611Z,23.20
2018-04-22T18:18:56.820Z,23.00
2018-04-22T18:21:25.510Z,22.60
2018-04-22T18:23:54.303Z,22.40
2018-04-22T18:26:24.474Z,22.30
2018-04-22T18:28:54.358Z,21.90
2018-04-22T18:31:22.509Z,21.90
2018-04-22T18:33:51.241Z,21.50
2018-04-22T18:36:19.185Z,21.40
2018-04-22T18:38:47.137Z,21.30
2018-04-22T18:41:15.797Z,21.00
2018-04-22T18:43:43.759Z,21.00
2018-04-22T18:46:17.828Z,20.80
2018-04-22T18:48:45.758Z,20.80
2018-04-22T18:51:13.721Z,20.60
2018-04-22T18:53:41.670Z,20.50
2018-04-22T18:56:09.564Z,20.40
2018-04-22T18:58:37.845Z,20.30
2018-04-22T19:01:05.746Z,20.10
2018-04-22T19:03:33.684Z,20.10
2018-04-22T19:06:01.662Z,19.90
2018-04-22T19:08:29.610Z,19.80
2018-04-22T19:10:57.616Z,19.80
2018-04-22T19:13:26.332Z,19.50
2018-04-22T19:15:54.245Z,19.50
2018-04-22T19:18:22.211Z,19.50
2018-04-22T19:20:50.097Z,19.40
2018-04-22T19:23:18.390Z,19.30
2018-04-22T19:25:47.198Z,19.10
2018-04-22T19:28:18.646Z,19.10
2018-04-22T19:30:46.630Z,19.10
2018-04-22T19:33:14.518Z,19.10
2018-04-22T19:35:49.304Z,19.10
2018-04-22T19:38:17.963Z,19.10
2018-04-22T19:40:45.918Z,19.10
2018-04-22T19:43:13.802Z,19.00
2018-04-22T19:45:41.752Z,18.90
2018-04-22T19:48:09.642Z,18.80
2018-04-22T19:50:38.329Z,18.70
2018-04-22T19:53:06.247Z,18.60
2018-04-22T19:55:34.192Z,18.60
2018-04-22T19:58:06.237Z,18.50
2018-04-22T20:00:34.226Z,18.30
2018-04-22T20:03:02.889Z,18.00
2018-04-22T20:05:30.876Z,18.00
2018-04-22T20:07:59.594Z,17.90
2018-04-22T20:10:27.534Z,17.80
2018-04-22T20:12:56.812Z,17.90
2018-04-22T20:15:24.754Z,17.80
2018-04-22T20:17:53.427Z,17.90
2018-04-22T20:20:22.468Z,17.90
2018-04-22T20:22:50.391Z,17.90
2018-04-22T20:25:18.342Z,17.90
2018-04-22T20:27:46.336Z,17.90
2018-04-22T20:30:14.283Z,17.80
2018-04-22T20:32:42.677Z,17.80
2018-04-22T20:35:10.623Z,17.80
2018-04-22T20:37:39.284Z,17.80
2018-04-22T20:40:07.250Z,17.80
2018-04-22T20:42:35.555Z,17.70
2018-04-22T20:45:04.521Z,17.50
2018-04-22T20:47:33.391Z,17.40
2018-04-22T20:50:01.341Z,17.40
2018-04-22T20:52:30.018Z,17.20
2018-04-22T20:55:00.095Z,17.10
2018-04-22T20:57:28.230Z,17.00
2018-04-22T20:59:56.176Z,16.90
2018-04-22T21:02:24.089Z,16.80
2018-04-22T21:04:52.061Z,16.70
2018-04-22T21:07:24.553Z,16.70
2018-04-22T21:09:52.784Z,16.60
2018-04-22T21:12:20.671Z,16.50
2018-04-22T21:14:48.629Z,16.50
2018-04-22T21:17:16.565Z,16.40
2018-04-22T21:19:44.511Z,16.30
2018-04-22T21:22:13.191Z,16.10
2018-04-22T21:24:41.174Z,16.10
2018-04-22T21:27:09.072Z,16.10
2018-04-22T21:29:37.021Z,16.00
2018-04-22T21:32:04.950Z,15.90
2018-04-22T21:34:32.909Z,15.90
2018-04-22T21:37:00.819Z,15.80
2018-04-22T21:39:28.760Z,15.70
2018-04-22T21:41:56.659Z,15.60
2018-04-22T21:44:27.196Z,15.60
2018-04-22T21:46:55.874Z,15.50
2018-04-22T21:49:23.842Z,15.50
2018-04-22T21:51:53.177Z,15.30
2018-04-22T21:54:21.134Z,15.30
2018-04-22T21:56:49.814Z,15.30
2018-04-22T21:59:19.339Z,15.20
2018-04-22T22:01:47.235Z,15.20
2018-04-22T22:04:15.199Z,15.20
2018-04-22T22:06:43.888Z,15.10
2018-04-22T22:09:11.856Z,15.10
2018-04-22T22:11:39.830Z,15.00
2018-04-22T22:14:08.390Z,15.00
2018-04-22T22:16:37.284Z,15.00
2018-04-22T22:19:09.060Z,14.90
2018-04-22T22:21:37.125Z,14.80
2018-04-22T22:24:05.142Z,14.80
2018-04-22T22:26:33.066Z,14.80
2018-04-22T22:29:03.039Z,14.70
2018-04-22T22:31:30.985Z,14.70
2018-04-22T22:33:58.889Z,14.60
2018-04-22T22:36:45.270Z,14.50
2018-04-22T22:39:13.877Z,14.50
2018-04-22T22:41:41.892Z,14.50
2018-04-22T22:44:09.851Z,14.50
2018-04-22T22:46:38.584Z,14.40
2018-04-22T22:49:06.526Z,14.40
2018-04-22T22:51:34.469Z,14.40
2018-04-22T22:54:02.366Z,14.30
2018-04-22T22:56:30.334Z,14.30
2018-04-22T22:58:58.244Z,14.20
2018-04-22T23:01:26.240Z,14.20
2018-04-22T23:03:54.136Z,14.30
2018-04-22T23:06:23.059Z,14.30
2018-04-22T23:08:51.032Z,14.30
2018-04-22T23:11:18.993Z,14.30
2018-04-22T23:13:46.902Z,14.30
2018-04-22T23:16:15.641Z,14.30
2018-04-22T23:18:43.545Z,14.30
2018-04-22T23:21:12.273Z,14.30
2018-04-22T23:23:40.163Z,14.30
2018-04-22T23:26:08.123Z,14.30
2018-04-22T23:28:36.015Z,14.30
2018-04-22T23:31:04.290Z,14.40
2018-04-22T23:33:32.219Z,14.40
2018-04-22T23:36:00.230Z,14.50
2018-04-22T23:38:28.158Z,14.50
2018-04-22T23:40:56.146Z,14.40
2018-04-22T23:43:24.056Z,14.50
2018-04-22T23:45:52.013Z,14.60
2018-04-22T23:48:19.914Z,14.70
2018-04-22T23:50:48.637Z,14.90
2018-04-22T23:53:16.521Z,14.90
2018-04-22T23:55:44.481Z,14.90
2018-04-22T23:58:12.373Z,14.90
